Summerville, Oregon
Current Conditions -  °F | °C
As of 6:55 AM on Wednesday 22 Oct 2014 (Local Time) from KLGD Reporting Station
Broken Clouds Broken Clouds  
Wind Chill: 52°   Ceiling: 10000
Heat Index: 52°   Visibility: 10mi
Dew Point: 28°   Wind: 16mph
Humidity: 41%   Direction: 180°S
Pressure: 29.98"   Gusts: 25mph
Location:  45.49°N, 118°W
Report Text: KLGD 221355Z AUTO 18014G22KT 10SM FEW070 SCT080 BKN100 11/M02 A2998 RMK AO1
Loading
Personal Weather Stations






























Interactive Weather Map
Tropical Storm Tracking
New forecast layout! Learn more

10-Day Weather Forecast

Advertisements
Track Severe Weather on mobile